NC01 weather

Harvey Point Defense Testing Activity Airport
Hertford, North Carolina, United States

Public forecast

Using degrees Fahrenheit for public forecast. Weather courtesy of forecast.io.

METAR (pilot weather report)

Closest report is Elizabeth City Regional Airport & Coast Guard Air Station, 12.3 nm (22.8 km) NE. Retrieved 2019/04/20 13:54 UTC (32 minutes ago):

KECG 201354Z 21012KT 10SM CLR 18/12 A2976 RMK AO2 SLP078 T01780122

TAF (pilot weather forecast)

Closest forecast is Elizabeth City Regional Airport & Coast Guard Air Station, 12.3 nm (22.8 km) NE. Retrieved 2019/04/20 12:24 UTC (2 hours ago):

TAF KECG 201120Z 2012/2112 18007KT P6SM SCT060 BKN070 OVC110 FM201300 21013G20KT P6SM BKN150 FM202000 18013G21KT P6SM BKN080 FM210000 21010KT P6SM SCT200